Terminal Aerodrome Forecast
Issued by NWS Tulsa, OK

Home | Current Version | Previous Version | Text Only | Print | Product List | Glossary On
Versions: 1 2 3 4 5 6 7 8 9 10 11 12 13 14
000
FTUS44 KTSA 271100 RRA
TAFFSM
TAF
KFSM 271146Z 2712/2812 31013KT 3SM -RA BR BKN007 OVC015
      TEMPO 2712/2715 6SM -RA BR SCT007 OVC025
     FM271500 29007KT 6SM -RA OVC025
     FM271900 31009KT P6SM OVC050
      TEMPO 2719/2721 6SM -RA
     FM280300 31009KT P6SM OVC090=

USA.gov is the U.S. government's official web portal to all federal, state and local government web resources and services.